sensor_id;sensor_type;location;lat;lon;timestamp;P1;durP1;ratioP1;P2;durP2;ratioP2
18693;SDS011;9477;51.414;10.362;2023-04-23T00:01:25;4.83;;;2.00;;
18693;SDS011;9477;51.414;10.362;2023-04-23T00:03:29;4.07;;;2.23;;
18693;SDS011;9477;51.414;10.362;2023-04-23T00:05:33;4.63;;;2.23;;
18693;SDS011;9477;51.414;10.362;2023-04-23T00:07:38;3.00;;;2.10;;
18693;SDS011;9477;51.414;10.362;2023-04-23T00:09:41;2.53;;;1.80;;
18693;SDS011;9477;51.414;10.362;2023-04-23T00:11:45;6.07;;;1.90;;
18693;SDS011;9477;51.414;10.362;2023-04-23T00:13:49;4.50;;;2.37;;
18693;SDS011;9477;51.414;10.362;2023-04-23T00:15:54;5.67;;;2.10;;
18693;SDS011;9477;51.414;10.362;2023-04-23T00:17:58;4.10;;;2.20;;
18693;SDS011;9477;51.414;10.362;2023-04-23T00:20:00;2.10;;;1.90;;
18693;SDS011;9477;51.414;10.362;2023-04-23T00:22:03;4.33;;;2.07;;
18693;SDS011;9477;51.414;10.362;2023-04-23T00:24:06;4.40;;;2.00;;
18693;SDS011;9477;51.414;10.362;2023-04-23T00:26:09;4.27;;;2.10;;
18693;SDS011;9477;51.414;10.362;2023-04-23T00:28:12;3.23;;;2.20;;
18693;SDS011;9477;51.414;10.362;2023-04-23T00:30:15;2.97;;;2.10;;
18693;SDS011;9477;51.414;10.362;2023-04-23T00:32:20;4.40;;;2.00;;
18693;SDS011;9477;51.414;10.362;2023-04-23T00:34:24;3.83;;;2.10;;
18693;SDS011;9477;51.414;10.362;2023-04-23T00:36:27;6.23;;;2.30;;
18693;SDS011;9477;51.414;10.362;2023-04-23T00:38:30;3.23;;;2.10;;
18693;SDS011;9477;51.414;10.362;2023-04-23T00:40:33;3.83;;;2.17;;
18693;SDS011;9477;51.414;10.362;2023-04-23T00:42:36;4.90;;;2.50;;
18693;SDS011;9477;51.414;10.362;2023-04-23T00:44:40;2.83;;;1.93;;
18693;SDS011;9477;51.414;10.362;2023-04-23T00:46:44;4.37;;;2.10;;
18693;SDS011;9477;51.414;10.362;2023-04-23T00:48:49;3.80;;;2.27;;
18693;SDS011;9477;51.414;10.362;2023-04-23T00:50:56;3.47;;;2.60;;
18693;SDS011;9477;51.414;10.362;2023-04-23T00:53:02;3.27;;;2.10;;
18693;SDS011;9477;51.414;10.362;2023-04-23T00:55:05;2.37;;;1.83;;
18693;SDS011;9477;51.414;10.362;2023-04-23T00:57:10;3.30;;;2.20;;
18693;SDS011;9477;51.414;10.362;2023-04-23T00:59:13;4.10;;;2.17;;
18693;SDS011;9477;51.414;10.362;2023-04-23T01:01:16;5.43;;;2.30;;
18693;SDS011;9477;51.414;10.362;2023-04-23T01:03:21;4.40;;;2.30;;
18693;SDS011;9477;51.414;10.362;2023-04-23T01:05:27;3.90;;;2.43;;
18693;SDS011;9477;51.414;10.362;2023-04-23T01:07:31;3.37;;;2.20;;
18693;SDS011;9477;51.414;10.362;2023-04-23T01:09:36;4.90;;;2.30;;
18693;SDS011;9477;51.414;10.362;2023-04-23T01:11:40;4.07;;;2.10;;
18693;SDS011;9477;51.414;10.362;2023-04-23T01:13:44;3.17;;;2.20;;
18693;SDS011;9477;51.414;10.362;2023-04-23T01:15:47;4.17;;;2.50;;
18693;SDS011;9477;51.414;10.362;2023-04-23T01:17:50;3.87;;;2.50;;
18693;SDS011;9477;51.414;10.362;2023-04-23T01:19:54;4.67;;;2.40;;
18693;SDS011;9477;51.414;10.362;2023-04-23T01:21:59;4.77;;;2.50;;
18693;SDS011;9477;51.414;10.362;2023-04-23T01:24:05;5.67;;;2.50;;
18693;SDS011;9477;51.414;10.362;2023-04-23T01:26:09;4.13;;;2.80;;
18693;SDS011;9477;51.414;10.362;2023-04-23T01:28:12;8.10;;;2.30;;
18693;SDS011;9477;51.414;10.362;2023-04-23T01:30:16;5.20;;;2.63;;
18693;SDS011;9477;51.414;10.362;2023-04-23T01:32:19;3.60;;;2.40;;
18693;SDS011;9477;51.414;10.362;2023-04-23T01:34:23;5.20;;;2.90;;
18693;SDS011;9477;51.414;10.362;2023-04-23T01:36:25;5.53;;;2.40;;
18693;SDS011;9477;51.414;10.362;2023-04-23T01:38:29;3.53;;;2.40;;
18693;SDS011;9477;51.414;10.362;2023-04-23T01:40:37;3.50;;;2.53;;
18693;SDS011;9477;51.414;10.362;2023-04-23T01:42:40;5.83;;;2.70;;
18693;SDS011;9477;51.414;10.362;2023-04-23T01:44:44;3.40;;;2.70;;
18693;SDS011;9477;51.414;10.362;2023-04-23T01:46:47;9.70;;;2.93;;
18693;SDS011;9477;51.414;10.362;2023-04-23T01:48:49;3.17;;;2.50;;
18693;SDS011;9477;51.414;10.362;2023-04-23T01:50:52;3.63;;;2.70;;
18693;SDS011;9477;51.414;10.362;2023-04-23T01:52:56;4.17;;;3.00;;
18693;SDS011;9477;51.414;10.362;2023-04-23T01:54:58;5.13;;;3.27;;
18693;SDS011;9477;51.414;10.362;2023-04-23T01:57:04;4.13;;;2.60;;
18693;SDS011;9477;51.414;10.362;2023-04-23T01:59:07;5.67;;;2.60;;
18693;SDS011;9477;51.414;10.362;2023-04-23T02:01:10;4.60;;;2.70;;
18693;SDS011;9477;51.414;10.362;2023-04-23T02:03:13;6.87;;;2.90;;
18693;SDS011;9477;51.414;10.362;2023-04-23T02:05:17;5.07;;;3.33;;
18693;SDS011;9477;51.414;10.362;2023-04-23T02:07:21;6.00;;;3.33;;
18693;SDS011;9477;51.414;10.362;2023-04-23T02:09:24;5.03;;;3.03;;
18693;SDS011;9477;51.414;10.362;2023-04-23T02:11:27;7.13;;;3.43;;
18693;SDS011;9477;51.414;10.362;2023-04-23T02:13:31;5.40;;;3.37;;
18693;SDS011;9477;51.414;10.362;2023-04-23T02:15:34;3.43;;;2.77;;
18693;SDS011;9477;51.414;10.362;2023-04-23T02:17:39;5.87;;;3.40;;
18693;SDS011;9477;51.414;10.362;2023-04-23T02:19:42;4.77;;;3.80;;
18693;SDS011;9477;51.414;10.362;2023-04-23T02:21:46;6.57;;;3.70;;
18693;SDS011;9477;51.414;10.362;2023-04-23T02:23:49;5.30;;;3.80;;
18693;SDS011;9477;51.414;10.362;2023-04-23T02:25:52;4.13;;;3.40;;
18693;SDS011;9477;51.414;10.362;2023-04-23T02:27:57;4.90;;;3.60;;
18693;SDS011;9477;51.414;10.362;2023-04-23T02:30:08;5.43;;;3.40;;
18693;SDS011;9477;51.414;10.362;2023-04-23T02:32:11;5.63;;;3.33;;
18693;SDS011;9477;51.414;10.362;2023-04-23T02:34:14;4.80;;;3.23;;
18693;SDS011;9477;51.414;10.362;2023-04-23T02:36:17;6.83;;;4.23;;
18693;SDS011;9477;51.414;10.362;2023-04-23T02:38:20;5.23;;;3.70;;
18693;SDS011;9477;51.414;10.362;2023-04-23T02:40:24;8.27;;;3.77;;
18693;SDS011;9477;51.414;10.362;2023-04-23T02:42:27;5.57;;;3.70;;
18693;SDS011;9477;51.414;10.362;2023-04-23T02:44:30;6.87;;;4.17;;
18693;SDS011;9477;51.414;10.362;2023-04-23T02:46:34;4.73;;;3.70;;
18693;SDS011;9477;51.414;10.362;2023-04-23T02:48:38;7.10;;;3.80;;
18693;SDS011;9477;51.414;10.362;2023-04-23T02:50:42;4.97;;;3.33;;
18693;SDS011;9477;51.414;10.362;2023-04-23T02:52:44;4.63;;;3.50;;
18693;SDS011;9477;51.414;10.362;2023-04-23T02:54:49;4.83;;;3.67;;
18693;SDS011;9477;51.414;10.362;2023-04-23T02:56:52;5.30;;;3.50;;
18693;SDS011;9477;51.414;10.362;2023-04-23T02:58:57;4.80;;;3.53;;
18693;SDS011;9477;51.414;10.362;2023-04-23T03:01:01;5.83;;;3.50;;
18693;SDS011;9477;51.414;10.362;2023-04-23T03:03:06;6.77;;;3.90;;
18693;SDS011;9477;51.414;10.362;2023-04-23T03:05:12;6.17;;;3.33;;
18693;SDS011;9477;51.414;10.362;2023-04-23T03:07:15;4.90;;;3.70;;
18693;SDS011;9477;51.414;10.362;2023-04-23T03:09:18;5.90;;;3.93;;
18693;SDS011;9477;51.414;10.362;2023-04-23T03:11:21;10.43;;;3.67;;
18693;SDS011;9477;51.414;10.362;2023-04-23T03:13:24;5.83;;;3.80;;
18693;SDS011;9477;51.414;10.362;2023-04-23T03:15:27;7.30;;;4.07;;
18693;SDS011;9477;51.414;10.362;2023-04-23T03:17:30;6.57;;;3.70;;
18693;SDS011;9477;51.414;10.362;2023-04-23T03:19:34;5.23;;;3.97;;
18693;SDS011;9477;51.414;10.362;2023-04-23T03:21:37;6.57;;;3.87;;
18693;SDS011;9477;51.414;10.362;2023-04-23T03:23:41;8.07;;;4.23;;
18693;SDS011;9477;51.414;10.362;2023-04-23T03:25:44;4.37;;;3.70;;
18693;SDS011;9477;51.414;10.362;2023-04-23T03:27:47;3.97;;;3.57;;
18693;SDS011;9477;51.414;10.362;2023-04-23T03:29:52;5.30;;;3.50;;
18693;SDS011;9477;51.414;10.362;2023-04-23T03:31:55;5.47;;;4.07;;
18693;SDS011;9477;51.414;10.362;2023-04-23T03:33:59;5.90;;;3.97;;
18693;SDS011;9477;51.414;10.362;2023-04-23T03:36:03;6.33;;;3.93;;
18693;SDS011;9477;51.414;10.362;2023-04-23T03:38:06;5.23;;;4.00;;
18693;SDS011;9477;51.414;10.362;2023-04-23T03:40:09;6.27;;;4.10;;
18693;SDS011;9477;51.414;10.362;2023-04-23T03:42:13;4.50;;;3.90;;
18693;SDS011;9477;51.414;10.362;2023-04-23T03:44:16;6.40;;;4.50;;
18693;SDS011;9477;51.414;10.362;2023-04-23T03:46:19;9.37;;;3.93;;
18693;SDS011;9477;51.414;10.362;2023-04-23T03:48:22;5.20;;;3.50;;
18693;SDS011;9477;51.414;10.362;2023-04-23T03:50:25;4.23;;;3.70;;
18693;SDS011;9477;51.414;10.362;2023-04-23T03:52:29;4.33;;;3.87;;
18693;SDS011;9477;51.414;10.362;2023-04-23T03:54:31;4.43;;;3.60;;
18693;SDS011;9477;51.414;10.362;2023-04-23T03:56:34;4.97;;;3.70;;
18693;SDS011;9477;51.414;10.362;2023-04-23T03:58:37;5.53;;;4.07;;
18693;SDS011;9477;51.414;10.362;2023-04-23T04:00:40;4.47;;;3.80;;
18693;SDS011;9477;51.414;10.362;2023-04-23T04:02:43;4.63;;;3.67;;
18693;SDS011;9477;51.414;10.362;2023-04-23T04:04:46;5.33;;;3.90;;
18693;SDS011;9477;51.414;10.362;2023-04-23T04:06:52;4.30;;;3.90;;
18693;SDS011;9477;51.414;10.362;2023-04-23T04:08:56;5.50;;;4.37;;
18693;SDS011;9477;51.414;10.362;2023-04-23T04:10:59;6.17;;;4.00;;
18693;SDS011;9477;51.414;10.362;2023-04-23T04:13:02;6.30;;;4.20;;
18693;SDS011;9477;51.414;10.362;2023-04-23T04:15:05;5.53;;;4.37;;
18693;SDS011;9477;51.414;10.362;2023-04-23T04:17:08;5.47;;;4.27;;
18693;SDS011;9477;51.414;10.362;2023-04-23T04:19:12;5.50;;;3.90;;
18693;SDS011;9477;51.414;10.362;2023-04-23T04:21:18;5.17;;;3.70;;
18693;SDS011;9477;51.414;10.362;2023-04-23T04:23:21;5.23;;;3.90;;
18693;SDS011;9477;51.414;10.362;2023-04-23T04:25:25;3.80;;;3.40;;
18693;SDS011;9477;51.414;10.362;2023-04-23T04:27:29;5.90;;;3.97;;
18693;SDS011;9477;51.414;10.362;2023-04-23T04:29:33;4.40;;;3.77;;
18693;SDS011;9477;51.414;10.362;2023-04-23T04:31:36;5.63;;;4.03;;
18693;SDS011;9477;51.414;10.362;2023-04-23T04:33:39;6.17;;;4.00;;
18693;SDS011;9477;51.414;10.362;2023-04-23T04:35:43;4.33;;;3.70;;
18693;SDS011;9477;51.414;10.362;2023-04-23T04:37:46;7.20;;;5.47;;
18693;SDS011;9477;51.414;10.362;2023-04-23T04:39:50;6.03;;;5.43;;
18693;SDS011;9477;51.414;10.362;2023-04-23T04:41:54;6.77;;;5.80;;
18693;SDS011;9477;51.414;10.362;2023-04-23T04:44:00;5.23;;;4.73;;
18693;SDS011;9477;51.414;10.362;2023-04-23T04:46:03;5.03;;;3.93;;
18693;SDS011;9477;51.414;10.362;2023-04-23T04:48:07;5.20;;;4.70;;
18693;SDS011;9477;51.414;10.362;2023-04-23T04:50:10;4.60;;;3.97;;
18693;SDS011;9477;51.414;10.362;2023-04-23T04:52:13;4.57;;;3.90;;
18693;SDS011;9477;51.414;10.362;2023-04-23T04:54:16;4.47;;;3.60;;
18693;SDS011;9477;51.414;10.362;2023-04-23T04:56:19;4.73;;;4.33;;
18693;SDS011;9477;51.414;10.362;2023-04-23T04:58:23;5.90;;;4.50;;
18693;SDS011;9477;51.414;10.362;2023-04-23T05:00:27;5.70;;;4.60;;
18693;SDS011;9477;51.414;10.362;2023-04-23T05:02:33;8.33;;;4.90;;
18693;SDS011;9477;51.414;10.362;2023-04-23T05:04:36;5.20;;;4.70;;
18693;SDS011;9477;51.414;10.362;2023-04-23T05:06:39;5.83;;;5.23;;
18693;SDS011;9477;51.414;10.362;2023-04-23T05:08:42;4.87;;;4.43;;
18693;SDS011;9477;51.414;10.362;2023-04-23T05:10:48;5.77;;;5.13;;
18693;SDS011;9477;51.414;10.362;2023-04-23T05:12:51;6.70;;;6.00;;
18693;SDS011;9477;51.414;10.362;2023-04-23T05:14:56;7.00;;;6.23;;
18693;SDS011;9477;51.414;10.362;2023-04-23T05:16:58;9.47;;;8.00;;
18693;SDS011;9477;51.414;10.362;2023-04-23T05:19:01;9.87;;;8.30;;
18693;SDS011;9477;51.414;10.362;2023-04-23T05:21:04;11.23;;;9.77;;
18693;SDS011;9477;51.414;10.362;2023-04-23T05:23:07;10.93;;;9.57;;
18693;SDS011;9477;51.414;10.362;2023-04-23T05:25:10;10.87;;;9.77;;
18693;SDS011;9477;51.414;10.362;2023-04-23T05:27:15;12.33;;;9.20;;
18693;SDS011;9477;51.414;10.362;2023-04-23T05:29:19;9.83;;;8.70;;
18693;SDS011;9477;51.414;10.362;2023-04-23T05:31:23;10.00;;;9.00;;
18693;SDS011;9477;51.414;10.362;2023-04-23T05:33:29;9.73;;;8.73;;
18693;SDS011;9477;51.414;10.362;2023-04-23T05:35:46;9.97;;;8.87;;
18693;SDS011;9477;51.414;10.362;2023-04-23T05:37:50;10.23;;;9.00;;
18693;SDS011;9477;51.414;10.362;2023-04-23T05:39:53;10.17;;;9.10;;
18693;SDS011;9477;51.414;10.362;2023-04-23T05:41:57;10.90;;;9.53;;
18693;SDS011;9477;51.414;10.362;2023-04-23T05:44:00;11.27;;;9.97;;
18693;SDS011;9477;51.414;10.362;2023-04-23T05:46:03;12.70;;;10.10;;
18693;SDS011;9477;51.414;10.362;2023-04-23T05:48:09;13.90;;;9.93;;
18693;SDS011;9477;51.414;10.362;2023-04-23T05:50:12;12.60;;;10.10;;
18693;SDS011;9477;51.414;10.362;2023-04-23T05:52:15;11.80;;;10.43;;
18693;SDS011;9477;51.414;10.362;2023-04-23T05:54:18;12.87;;;11.03;;
18693;SDS011;9477;51.414;10.362;2023-04-23T05:56:20;12.53;;;10.83;;
18693;SDS011;9477;51.414;10.362;2023-04-23T05:58:24;14.40;;;11.87;;
18693;SDS011;9477;51.414;10.362;2023-04-23T06:00:27;15.43;;;11.60;;
18693;SDS011;9477;51.414;10.362;2023-04-23T06:02:30;13.00;;;10.50;;
18693;SDS011;9477;51.414;10.362;2023-04-23T06:04:35;12.73;;;10.73;;
18693;SDS011;9477;51.414;10.362;2023-04-23T06:06:39;13.17;;;10.80;;
18693;SDS011;9477;51.414;10.362;2023-04-23T06:08:43;13.17;;;10.33;;
18693;SDS011;9477;51.414;10.362;2023-04-23T06:10:46;14.50;;;10.43;;
18693;SDS011;9477;51.414;10.362;2023-04-23T06:12:48;13.93;;;11.00;;
18693;SDS011;9477;51.414;10.362;2023-04-23T06:14:51;10.80;;;9.00;;
18693;SDS011;9477;51.414;10.362;2023-04-23T06:16:54;10.17;;;8.97;;
18693;SDS011;9477;51.414;10.362;2023-04-23T06:18:57;21.07;;;16.63;;
18693;SDS011;9477;51.414;10.362;2023-04-23T06:21:01;14.27;;;11.50;;
18693;SDS011;9477;51.414;10.362;2023-04-23T06:23:04;12.20;;;9.90;;
18693;SDS011;9477;51.414;10.362;2023-04-23T06:25:08;8.90;;;7.37;;
18693;SDS011;9477;51.414;10.362;2023-04-23T06:27:11;7.87;;;6.50;;
18693;SDS011;9477;51.414;10.362;2023-04-23T06:29:14;8.27;;;7.10;;
18693;SDS011;9477;51.414;10.362;2023-04-23T06:31:17;8.50;;;7.23;;
18693;SDS011;9477;51.414;10.362;2023-04-23T06:33:20;7.50;;;6.80;;
18693;SDS011;9477;51.414;10.362;2023-04-23T06:35:23;6.60;;;6.00;;
18693;SDS011;9477;51.414;10.362;2023-04-23T06:37:27;7.20;;;6.17;;
18693;SDS011;9477;51.414;10.362;2023-04-23T06:39:32;7.87;;;6.30;;
18693;SDS011;9477;51.414;10.362;2023-04-23T06:41:35;7.10;;;5.57;;
18693;SDS011;9477;51.414;10.362;2023-04-23T06:43:41;9.00;;;7.43;;
18693;SDS011;9477;51.414;10.362;2023-04-23T06:45:46;8.10;;;6.50;;
18693;SDS011;9477;51.414;10.362;2023-04-23T06:47:50;6.17;;;5.53;;
18693;SDS011;9477;51.414;10.362;2023-04-23T06:49:53;5.90;;;5.23;;
18693;SDS011;9477;51.414;10.362;2023-04-23T06:51:57;6.93;;;5.07;;
18693;SDS011;9477;51.414;10.362;2023-04-23T06:54:01;5.10;;;4.57;;
18693;SDS011;9477;51.414;10.362;2023-04-23T06:56:04;5.30;;;4.80;;
18693;SDS011;9477;51.414;10.362;2023-04-23T06:58:08;4.50;;;4.10;;
18693;SDS011;9477;51.414;10.362;2023-04-23T07:00:14;5.30;;;4.80;;
18693;SDS011;9477;51.414;10.362;2023-04-23T07:02:18;5.90;;;5.07;;
18693;SDS011;9477;51.414;10.362;2023-04-23T07:04:21;5.10;;;4.60;;
18693;SDS011;9477;51.414;10.362;2023-04-23T07:06:24;4.70;;;4.30;;
18693;SDS011;9477;51.414;10.362;2023-04-23T07:08:28;5.50;;;4.30;;
18693;SDS011;9477;51.414;10.362;2023-04-23T07:10:32;5.37;;;4.27;;
18693;SDS011;9477;51.414;10.362;2023-04-23T07:12:35;6.67;;;4.93;;
18693;SDS011;9477;51.414;10.362;2023-04-23T07:14:38;5.30;;;4.80;;
18693;SDS011;9477;51.414;10.362;2023-04-23T07:16:42;5.43;;;4.77;;
18693;SDS011;9477;51.414;10.362;2023-04-23T07:18:52;4.90;;;4.47;;
18693;SDS011;9477;51.414;10.362;2023-04-23T07:20:55;5.63;;;5.07;;
18693;SDS011;9477;51.414;10.362;2023-04-23T07:22:58;5.57;;;4.37;;
18693;SDS011;9477;51.414;10.362;2023-04-23T07:25:04;5.07;;;4.17;;
18693;SDS011;9477;51.414;10.362;2023-04-23T07:27:12;5.77;;;4.17;;
18693;SDS011;9477;51.414;10.362;2023-04-23T07:29:15;4.00;;;3.60;;
18693;SDS011;9477;51.414;10.362;2023-04-23T07:31:18;4.40;;;3.53;;
18693;SDS011;9477;51.414;10.362;2023-04-23T07:33:21;5.03;;;3.87;;
18693;SDS011;9477;51.414;10.362;2023-04-23T07:35:24;3.53;;;2.90;;
18693;SDS011;9477;51.414;10.362;2023-04-23T07:37:27;3.30;;;2.60;;
18693;SDS011;9477;51.414;10.362;2023-04-23T07:39:32;3.80;;;2.73;;
18693;SDS011;9477;51.414;10.362;2023-04-23T07:41:35;3.37;;;2.67;;
18693;SDS011;9477;51.414;10.362;2023-04-23T07:43:40;2.60;;;2.40;;
18693;SDS011;9477;51.414;10.362;2023-04-23T07:45:45;2.27;;;2.07;;
18693;SDS011;9477;51.414;10.362;2023-04-23T07:47:48;2.30;;;2.10;;
18693;SDS011;9477;51.414;10.362;2023-04-23T07:49:51;2.73;;;2.20;;
18693;SDS011;9477;51.414;10.362;2023-04-23T07:51:54;2.50;;;2.30;;
18693;SDS011;9477;51.414;10.362;2023-04-23T07:53:57;2.87;;;2.20;;
18693;SDS011;9477;51.414;10.362;2023-04-23T07:56:00;2.07;;;1.80;;
18693;SDS011;9477;51.414;10.362;2023-04-23T07:58:04;2.10;;;1.90;;
18693;SDS011;9477;51.414;10.362;2023-04-23T08:00:11;2.03;;;1.80;;
18693;SDS011;9477;51.414;10.362;2023-04-23T08:02:14;1.83;;;1.73;;
18693;SDS011;9477;51.414;10.362;2023-04-23T08:04:18;2.10;;;1.60;;
18693;SDS011;9477;51.414;10.362;2023-04-23T08:06:22;4.77;;;2.00;;
18693;SDS011;9477;51.414;10.362;2023-04-23T08:08:25;2.40;;;1.87;;
18693;SDS011;9477;51.414;10.362;2023-04-23T08:10:28;3.80;;;2.40;;
18693;SDS011;9477;51.414;10.362;2023-04-23T08:12:31;4.00;;;2.90;;
18693;SDS011;9477;51.414;10.362;2023-04-23T08:14:36;2.43;;;1.90;;
18693;SDS011;9477;51.414;10.362;2023-04-23T08:16:42;2.30;;;1.60;;
18693;SDS011;9477;51.414;10.362;2023-04-23T08:18:45;2.73;;;1.70;;
18693;SDS011;9477;51.414;10.362;2023-04-23T08:21:04;2.07;;;1.80;;
18693;SDS011;9477;51.414;10.362;2023-04-23T08:23:07;4.40;;;1.73;;
18693;SDS011;9477;51.414;10.362;2023-04-23T08:25:11;2.03;;;1.43;;
18693;SDS011;9477;51.414;10.362;2023-04-23T08:27:15;2.60;;;1.60;;
18693;SDS011;9477;51.414;10.362;2023-04-23T08:29:18;1.47;;;1.37;;
18693;SDS011;9477;51.414;10.362;2023-04-23T08:31:21;1.87;;;1.40;;
18693;SDS011;9477;51.414;10.362;2023-04-23T08:33:29;1.60;;;1.50;;
18693;SDS011;9477;51.414;10.362;2023-04-23T08:35:32;3.23;;;1.60;;
18693;SDS011;9477;51.414;10.362;2023-04-23T08:37:35;3.17;;;1.70;;
18693;SDS011;9477;51.414;10.362;2023-04-23T08:39:39;2.40;;;2.17;;
18693;SDS011;9477;51.414;10.362;2023-04-23T08:41:45;1.73;;;1.63;;
18693;SDS011;9477;51.414;10.362;2023-04-23T08:43:55;1.80;;;1.33;;
18693;SDS011;9477;51.414;10.362;2023-04-23T08:46:11;2.17;;;1.57;;
18693;SDS011;9477;51.414;10.362;2023-04-23T08:48:18;2.63;;;1.40;;
18693;SDS011;9477;51.414;10.362;2023-04-23T08:50:24;2.87;;;1.60;;
18693;SDS011;9477;51.414;10.362;2023-04-23T08:52:28;3.20;;;1.60;;
18693;SDS011;9477;51.414;10.362;2023-04-23T08:54:35;3.17;;;1.80;;
18693;SDS011;9477;51.414;10.362;2023-04-23T08:56:43;1.87;;;1.40;;
18693;SDS011;9477;51.414;10.362;2023-04-23T08:58:47;2.00;;;1.70;;
18693;SDS011;9477;51.414;10.362;2023-04-23T09:00:52;2.20;;;2.00;;
18693;SDS011;9477;51.414;10.362;2023-04-23T09:02:56;2.80;;;2.03;;
18693;SDS011;9477;51.414;10.362;2023-04-23T09:05:01;3.47;;;1.80;;
18693;SDS011;9477;51.414;10.362;2023-04-23T09:07:06;3.17;;;2.70;;
18693;SDS011;9477;51.414;10.362;2023-04-23T09:09:11;2.17;;;1.53;;
18693;SDS011;9477;51.414;10.362;2023-04-23T09:11:18;2.57;;;2.03;;
18693;SDS011;9477;51.414;10.362;2023-04-23T09:13:24;5.67;;;5.10;;
18693;SDS011;9477;51.414;10.362;2023-04-23T09:15:27;2.83;;;2.20;;
18693;SDS011;9477;51.414;10.362;2023-04-23T09:17:30;2.30;;;2.10;;
18693;SDS011;9477;51.414;10.362;2023-04-23T09:19:36;2.33;;;2.13;;
18693;SDS011;9477;51.414;10.362;2023-04-23T09:21:41;3.17;;;1.90;;
18693;SDS011;9477;51.414;10.362;2023-04-23T09:23:46;3.27;;;2.00;;
18693;SDS011;9477;51.414;10.362;2023-04-23T09:25:52;2.43;;;1.87;;
18693;SDS011;9477;51.414;10.362;2023-04-23T09:27:54;2.23;;;2.03;;
18693;SDS011;9477;51.414;10.362;2023-04-23T09:30:00;2.23;;;1.60;;
18693;SDS011;9477;51.414;10.362;2023-04-23T09:32:06;3.57;;;2.20;;
18693;SDS011;9477;51.414;10.362;2023-04-23T09:34:10;2.30;;;2.10;;
18693;SDS011;9477;51.414;10.362;2023-04-23T09:36:13;2.70;;;2.27;;
18693;SDS011;9477;51.414;10.362;2023-04-23T09:38:18;3.37;;;2.57;;
18693;SDS011;9477;51.414;10.362;2023-04-23T09:40:23;4.10;;;2.43;;
18693;SDS011;9477;51.414;10.362;2023-04-23T09:42:28;3.63;;;2.50;;
18693;SDS011;9477;51.414;10.362;2023-04-23T09:44:31;2.57;;;2.30;;
18693;SDS011;9477;51.414;10.362;2023-04-23T09:46:38;2.80;;;2.30;;
18693;SDS011;9477;51.414;10.362;2023-04-23T09:48:42;3.53;;;2.20;;
18693;SDS011;9477;51.414;10.362;2023-04-23T09:50:45;2.57;;;2.30;;
18693;SDS011;9477;51.414;10.362;2023-04-23T09:52:52;2.83;;;2.43;;
18693;SDS011;9477;51.414;10.362;2023-04-23T09:54:56;3.23;;;2.30;;
18693;SDS011;9477;51.414;10.362;2023-04-23T09:57:01;2.30;;;2.10;;
18693;SDS011;9477;51.414;10.362;2023-04-23T09:59:18;2.47;;;2.27;;
18693;SDS011;9477;51.414;10.362;2023-04-23T10:01:51;3.43;;;2.20;;
18693;SDS011;9477;51.414;10.362;2023-04-23T10:03:54;2.43;;;2.23;;
18693;SDS011;9477;51.414;10.362;2023-04-23T10:05:58;3.97;;;2.67;;
18693;SDS011;9477;51.414;10.362;2023-04-23T10:08:02;1.97;;;1.83;;
18693;SDS011;9477;51.414;10.362;2023-04-23T10:10:07;2.40;;;2.20;;
18693;SDS011;9477;51.414;10.362;2023-04-23T10:12:12;2.70;;;2.10;;
18693;SDS011;9477;51.414;10.362;2023-04-23T10:14:18;2.97;;;2.20;;
18693;SDS011;9477;51.414;10.362;2023-04-23T10:16:23;2.10;;;1.90;;
18693;SDS011;9477;51.414;10.362;2023-04-23T10:18:38;5.17;;;3.00;;
18693;SDS011;9477;51.414;10.362;2023-04-23T10:20:41;2.20;;;2.00;;
18693;SDS011;9477;51.414;10.362;2023-04-23T10:22:44;2.10;;;1.90;;
18693;SDS011;9477;51.414;10.362;2023-04-23T10:24:50;1.80;;;1.70;;
18693;SDS011;9477;51.414;10.362;2023-04-23T10:26:57;2.20;;;1.73;;
18693;SDS011;9477;51.414;10.362;2023-04-23T10:29:04;2.23;;;1.83;;
18693;SDS011;9477;51.414;10.362;2023-04-23T10:31:12;2.43;;;1.83;;
18693;SDS011;9477;51.414;10.362;2023-04-23T10:33:15;2.33;;;2.00;;
18693;SDS011;9477;51.414;10.362;2023-04-23T10:35:30;2.53;;;1.77;;
18693;SDS011;9477;51.414;10.362;2023-04-23T10:37:35;2.23;;;1.90;;
18693;SDS011;9477;51.414;10.362;2023-04-23T10:39:39;3.57;;;1.80;;
18693;SDS011;9477;51.414;10.362;2023-04-23T10:41:47;2.67;;;1.80;;
18693;SDS011;9477;51.414;10.362;2023-04-23T10:43:51;3.37;;;1.77;;
18693;SDS011;9477;51.414;10.362;2023-04-23T10:45:56;4.57;;;1.90;;
18693;SDS011;9477;51.414;10.362;2023-04-23T10:47:59;2.53;;;2.20;;
18693;SDS011;9477;51.414;10.362;2023-04-23T10:50:16;2.57;;;1.80;;
18693;SDS011;9477;51.414;10.362;2023-04-23T10:52:23;3.63;;;1.80;;
18693;SDS011;9477;51.414;10.362;2023-04-23T10:54:27;2.10;;;1.60;;
18693;SDS011;9477;51.414;10.362;2023-04-23T10:56:32;1.50;;;1.40;;
18693;SDS011;9477;51.414;10.362;2023-04-23T10:58:48;3.10;;;2.03;;
18693;SDS011;9477;51.414;10.362;2023-04-23T11:00:52;2.07;;;1.63;;
18693;SDS011;9477;51.414;10.362;2023-04-23T11:02:57;1.67;;;1.57;;
18693;SDS011;9477;51.414;10.362;2023-04-23T11:05:04;4.30;;;1.80;;
18693;SDS011;9477;51.414;10.362;2023-04-23T11:07:11;2.33;;;1.60;;
18693;SDS011;9477;51.414;10.362;2023-04-23T11:11:41;2.60;;;1.90;;
18693;SDS011;9477;51.414;10.362;2023-04-23T11:13:50;2.80;;;1.70;;
18693;SDS011;9477;51.414;10.362;2023-04-23T11:16:11;3.40;;;2.00;;
18693;SDS011;9477;51.414;10.362;2023-04-23T11:18:22;1.60;;;1.50;;
18693;SDS011;9477;51.414;10.362;2023-04-23T11:20:25;2.87;;;1.80;;
18693;SDS011;9477;51.414;10.362;2023-04-23T11:22:33;1.67;;;1.50;;
18693;SDS011;9477;51.414;10.362;2023-04-23T11:24:37;1.58;;;1.48;;
18693;SDS011;9477;51.414;10.362;2023-04-23T11:26:43;1.80;;;1.33;;
18693;SDS011;9477;51.414;10.362;2023-04-23T11:28:48;1.85;;;1.50;;
18693;SDS011;9477;51.414;10.362;2023-04-23T11:30:54;2.30;;;1.60;;
18693;SDS011;9477;51.414;10.362;2023-04-23T11:32:58;3.08;;;1.98;;
18693;SDS011;9477;51.414;10.362;2023-04-23T11:35:04;2.35;;;1.65;;
18693;SDS011;9477;51.414;10.362;2023-04-23T11:37:13;2.63;;;1.60;;
18693;SDS011;9477;51.414;10.362;2023-04-23T11:39:16;2.73;;;1.73;;
18693;SDS011;9477;51.414;10.362;2023-04-23T11:41:21;2.87;;;1.70;;
18693;SDS011;9477;51.414;10.362;2023-04-23T11:43:25;3.47;;;1.73;;
18693;SDS011;9477;51.414;10.362;2023-04-23T11:45:29;1.80;;;1.70;;
18693;SDS011;9477;51.414;10.362;2023-04-23T11:47:35;2.13;;;1.60;;
18693;SDS011;9477;51.414;10.362;2023-04-23T11:49:38;2.13;;;1.77;;
18693;SDS011;9477;51.414;10.362;2023-04-23T11:51:45;2.40;;;1.70;;
18693;SDS011;9477;51.414;10.362;2023-04-23T11:53:50;2.27;;;2.00;;
18693;SDS011;9477;51.414;10.362;2023-04-23T11:55:53;2.00;;;1.73;;
18693;SDS011;9477;51.414;10.362;2023-04-23T11:57:56;2.23;;;2.00;;
18693;SDS011;9477;51.414;10.362;2023-04-23T11:59:59;2.00;;;1.47;;
18693;SDS011;9477;51.414;10.362;2023-04-23T12:02:04;2.57;;;1.90;;
18693;SDS011;9477;51.414;10.362;2023-04-23T12:04:08;2.53;;;1.80;;
18693;SDS011;9477;51.414;10.362;2023-04-23T12:06:14;2.27;;;1.63;;
18693;SDS011;9477;51.414;10.362;2023-04-23T12:08:21;1.70;;;1.60;;
18693;SDS011;9477;51.414;10.362;2023-04-23T12:10:26;3.27;;;1.80;;
18693;SDS011;9477;51.414;10.362;2023-04-23T12:12:32;1.70;;;1.60;;
18693;SDS011;9477;51.414;10.362;2023-04-23T12:14:36;2.27;;;1.60;;
18693;SDS011;9477;51.414;10.362;2023-04-23T12:16:39;1.87;;;1.67;;
18693;SDS011;9477;51.414;10.362;2023-04-23T12:18:43;2.20;;;1.97;;
18693;SDS011;9477;51.414;10.362;2023-04-23T12:20:46;1.60;;;1.50;;
18693;SDS011;9477;51.414;10.362;2023-04-23T12:22:48;2.42;;;1.42;;
18693;SDS011;9477;51.414;10.362;2023-04-23T12:24:53;2.33;;;1.60;;
18693;SDS011;9477;51.414;10.362;2023-04-23T12:26:56;1.83;;;1.50;;
18693;SDS011;9477;51.414;10.362;2023-04-23T12:29:01;3.03;;;1.60;;
18693;SDS011;9477;51.414;10.362;2023-04-23T12:31:04;2.57;;;1.60;;